sensor_id;sensor_type;location;lat;lon;timestamp;pressure;altitude;pressure_sealevel;temperature;humidity
71964;BME280;59834;52.124;5.422;2023-04-23T00:00:29;100836.59;;;7.03;100.00
71964;BME280;59834;52.124;5.422;2023-04-23T00:02:56;100841.94;;;7.00;100.00
71964;BME280;59834;52.124;5.422;2023-04-23T00:05:26;100841.19;;;6.98;100.00
71964;BME280;59834;52.124;5.422;2023-04-23T00:07:53;100835.19;;;6.96;100.00
71964;BME280;59834;52.124;5.422;2023-04-23T00:10:20;100830.09;;;6.95;100.00
71964;BME280;59834;52.124;5.422;2023-04-23T00:12:47;100839.66;;;6.94;100.00
71964;BME280;59834;52.124;5.422;2023-04-23T00:15:16;100837.94;;;6.93;100.00
71964;BME280;59834;52.124;5.422;2023-04-23T00:17:43;100838.03;;;6.92;100.00
71964;BME280;59834;52.124;5.422;2023-04-23T00:20:11;100838.88;;;6.92;100.00
71964;BME280;59834;52.124;5.422;2023-04-23T00:22:39;100837.19;;;6.91;100.00
71964;BME280;59834;52.124;5.422;2023-04-23T00:25:07;100835.50;;;6.90;100.00
71964;BME280;59834;52.124;5.422;2023-04-23T00:27:33;100834.66;;;6.90;100.00
71964;BME280;59834;52.124;5.422;2023-04-23T00:30:00;100832.88;;;6.90;100.00
71964;BME280;59834;52.124;5.422;2023-04-23T00:32:28;100832.88;;;6.90;100.00
71964;BME280;59834;52.124;5.422;2023-04-23T00:34:55;100832.13;;;6.88;100.00
71964;BME280;59834;52.124;5.422;2023-04-23T00:37:22;100824.34;;;6.88;100.00
71964;BME280;59834;52.124;5.422;2023-04-23T00:39:50;100821.88;;;6.85;100.00
71964;BME280;59834;52.124;5.422;2023-04-23T00:42:20;100819.47;;;6.80;100.00
71964;BME280;59834;52.124;5.422;2023-04-23T00:44:47;100804.03;;;6.77;100.00
71964;BME280;59834;52.124;5.422;2023-04-23T00:47:15;100805.03;;;6.75;100.00
71964;BME280;59834;52.124;5.422;2023-04-23T00:49:42;100802.47;;;6.73;100.00
71964;BME280;59834;52.124;5.422;2023-04-23T00:52:10;100801.78;;;6.70;100.00
71964;BME280;59834;52.124;5.422;2023-04-23T00:54:37;100797.50;;;6.69;100.00
71964;BME280;59834;52.124;5.422;2023-04-23T00:57:04;100792.38;;;6.67;100.00
71964;BME280;59834;52.124;5.422;2023-04-23T00:59:35;100795.06;;;6.66;100.00
71964;BME280;59834;52.124;5.422;2023-04-23T01:02:03;100796.03;;;6.63;100.00
71964;BME280;59834;52.124;5.422;2023-04-23T01:04:31;100793.38;;;6.65;100.00
71964;BME280;59834;52.124;5.422;2023-04-23T01:06:58;100792.47;;;6.66;100.00
71964;BME280;59834;52.124;5.422;2023-04-23T01:09:26;100784.50;;;6.69;100.00
71964;BME280;59834;52.124;5.422;2023-04-23T01:11:55;100792.06;;;6.73;100.00
71964;BME280;59834;52.124;5.422;2023-04-23T01:14:27;100791.09;;;6.76;100.00
71964;BME280;59834;52.124;5.422;2023-04-23T01:16:53;100787.72;;;6.74;100.00
71964;BME280;59834;52.124;5.422;2023-04-23T01:19:27;100782.69;;;6.71;100.00
71964;BME280;59834;52.124;5.422;2023-04-23T01:21:56;100776.75;;;6.67;100.00
71964;BME280;59834;52.124;5.422;2023-04-23T01:24:30;100769.13;;;6.64;100.00
71964;BME280;59834;52.124;5.422;2023-04-23T01:26:57;100762.38;;;6.60;100.00
71964;BME280;59834;52.124;5.422;2023-04-23T01:29:24;100765.13;;;6.57;100.00
71964;BME280;59834;52.124;5.422;2023-04-23T01:31:52;100766.88;;;6.56;100.00
71964;BME280;59834;52.124;5.422;2023-04-23T01:34:21;100765.06;;;6.58;100.00
71964;BME280;59834;52.124;5.422;2023-04-23T01:36:49;100764.13;;;6.59;100.00
71964;BME280;59834;52.124;5.422;2023-04-23T01:39:17;100766.69;;;6.61;100.00
71964;BME280;59834;52.124;5.422;2023-04-23T01:41:46;100756.28;;;6.61;100.00
71964;BME280;59834;52.124;5.422;2023-04-23T01:44:13;100764.06;;;6.61;100.00
71964;BME280;59834;52.124;5.422;2023-04-23T01:46:41;100753.59;;;6.63;100.00
71964;BME280;59834;52.124;5.422;2023-04-23T01:49:08;100756.97;;;6.65;100.00
71964;BME280;59834;52.124;5.422;2023-04-23T01:51:36;100753.44;;;6.66;100.00
71964;BME280;59834;52.124;5.422;2023-04-23T01:54:02;100743.72;;;6.69;100.00
71964;BME280;59834;52.124;5.422;2023-04-23T01:56:30;100743.44;;;6.75;100.00
71964;BME280;59834;52.124;5.422;2023-04-23T01:58:59;100744.97;;;6.79;100.00
71964;BME280;59834;52.124;5.422;2023-04-23T02:01:39;100741.22;;;6.85;100.00
71964;BME280;59834;52.124;5.422;2023-04-23T02:04:07;100742.84;;;6.88;100.00
71964;BME280;59834;52.124;5.422;2023-04-23T02:06:34;100738.47;;;6.88;100.00
71964;BME280;59834;52.124;5.422;2023-04-23T02:09:01;100736.63;;;6.90;100.00
71964;BME280;59834;52.124;5.422;2023-04-23T02:11:30;100736.63;;;6.90;100.00
71964;BME280;59834;52.124;5.422;2023-04-23T02:13:57;100745.44;;;6.88;100.00
71964;BME280;59834;52.124;5.422;2023-04-23T02:16:25;100736.63;;;6.90;100.00
71964;BME280;59834;52.124;5.422;2023-04-23T02:18:54;100726.22;;;6.90;100.00
71964;BME280;59834;52.124;5.422;2023-04-23T02:21:22;100727.91;;;6.91;100.00
71964;BME280;59834;52.124;5.422;2023-04-23T02:23:49;100720.72;;;6.96;100.00
71964;BME280;59834;52.124;5.422;2023-04-23T02:26:16;100723.16;;;6.99;100.00
71964;BME280;59834;52.124;5.422;2023-04-23T02:28:44;100718.72;;;7.01;100.00
71964;BME280;59834;52.124;5.422;2023-04-23T02:31:11;100716.88;;;7.03;100.00
71964;BME280;59834;52.124;5.422;2023-04-23T02:33:38;100715.03;;;7.05;100.00
71964;BME280;59834;52.124;5.422;2023-04-23T02:36:05;100715.97;;;7.04;100.00
71964;BME280;59834;52.124;5.422;2023-04-23T02:38:31;100710.78;;;7.04;100.00
71964;BME280;59834;52.124;5.422;2023-04-23T02:40:59;100715.03;;;7.05;100.00
71964;BME280;59834;52.124;5.422;2023-04-23T02:43:25;100714.28;;;7.03;100.00
71964;BME280;59834;52.124;5.422;2023-04-23T02:45:52;100716.03;;;7.03;100.00
71964;BME280;59834;52.124;5.422;2023-04-23T02:48:20;100708.31;;;7.01;100.00
71964;BME280;59834;52.124;5.422;2023-04-23T02:50:48;100704.00;;;7.00;100.00
71964;BME280;59834;52.124;5.422;2023-04-23T02:53:14;100708.31;;;7.01;100.00
71964;BME280;59834;52.124;5.422;2023-04-23T02:55:41;100715.19;;;7.02;100.00
71964;BME280;59834;52.124;5.422;2023-04-23T02:58:08;100717.72;;;7.04;100.00
71964;BME280;59834;52.124;5.422;2023-04-23T03:00:36;100709.06;;;7.03;100.00
71964;BME280;59834;52.124;5.422;2023-04-23T03:03:02;100716.88;;;7.03;100.00
71964;BME280;59834;52.124;5.422;2023-04-23T03:05:29;100711.66;;;7.03;100.00
71964;BME280;59834;52.124;5.422;2023-04-23T03:07:56;100708.06;;;7.06;100.00
71964;BME280;59834;52.124;5.422;2023-04-23T03:10:22;100710.78;;;7.04;100.00
71964;BME280;59834;52.124;5.422;2023-04-23T03:12:49;100719.41;;;7.05;100.00
71964;BME280;59834;52.124;5.422;2023-04-23T03:15:15;100715.03;;;7.05;100.00
71964;BME280;59834;52.124;5.422;2023-04-23T03:17:43;100717.66;;;7.05;100.00
71964;BME280;59834;52.124;5.422;2023-04-23T03:20:10;100720.16;;;7.07;100.00
71964;BME280;59834;52.124;5.422;2023-04-23T03:22:36;100719.25;;;7.08;100.00
71964;BME280;59834;52.124;5.422;2023-04-23T03:25:03;100706.16;;;7.09;100.00
71964;BME280;59834;52.124;5.422;2023-04-23T03:27:30;100711.34;;;7.09;100.00
71964;BME280;59834;52.124;5.422;2023-04-23T03:29:57;100708.75;;;7.09;100.00
71964;BME280;59834;52.124;5.422;2023-04-23T03:32:23;100704.31;;;7.12;100.00
71964;BME280;59834;52.124;5.422;2023-04-23T03:34:50;100704.16;;;7.15;100.00
71964;BME280;59834;52.124;5.422;2023-04-23T03:37:16;100688.41;;;7.18;100.00
71964;BME280;59834;52.124;5.422;2023-04-23T03:39:43;100688.22;;;7.21;100.00
71964;BME280;59834;52.124;5.422;2023-04-23T03:42:09;100692.53;;;7.22;100.00
71964;BME280;59834;52.124;5.422;2023-04-23T03:44:37;100694.13;;;7.24;100.00
71964;BME280;59834;52.124;5.422;2023-04-23T03:47:03;100694.97;;;7.25;100.00
71964;BME280;59834;52.124;5.422;2023-04-23T03:49:30;100694.19;;;7.23;100.00
71964;BME280;59834;52.124;5.422;2023-04-23T03:51:57;100702.00;;;7.23;100.00
71964;BME280;59834;52.124;5.422;2023-04-23T03:54:23;100688.06;;;7.24;100.00
71964;BME280;59834;52.124;5.422;2023-04-23T03:56:51;100691.69;;;7.21;100.00
71964;BME280;59834;52.124;5.422;2023-04-23T03:59:17;100697.78;;;7.20;100.00
71964;BME280;59834;52.124;5.422;2023-04-23T04:01:44;100699.72;;;7.17;100.00
71964;BME280;59834;52.124;5.422;2023-04-23T04:04:11;100692.97;;;7.13;100.00
71964;BME280;59834;52.124;5.422;2023-04-23T04:06:39;100687.94;;;7.09;100.00
71964;BME280;59834;52.124;5.422;2023-04-23T04:09:06;100689.84;;;7.06;100.00
71964;BME280;59834;52.124;5.422;2023-04-23T04:11:34;100688.19;;;7.05;100.00
71964;BME280;59834;52.124;5.422;2023-04-23T04:14:01;100684.91;;;7.01;100.00
71964;BME280;59834;52.124;5.422;2023-04-23T04:16:27;100684.22;;;6.98;100.00
71964;BME280;59834;52.124;5.422;2023-04-23T04:18:54;100687.72;;;6.97;100.00
71964;BME280;59834;52.124;5.422;2023-04-23T04:21:22;100688.56;;;6.97;100.00
71964;BME280;59834;52.124;5.422;2023-04-23T04:23:48;100687.66;;;6.98;100.00
71964;BME280;59834;52.124;5.422;2023-04-23T04:26:15;100683.34;;;6.97;100.00
71964;BME280;59834;52.124;5.422;2023-04-23T04:28:41;100682.59;;;6.95;100.00
71964;BME280;59834;52.124;5.422;2023-04-23T04:31:08;100683.53;;;6.94;100.00
71964;BME280;59834;52.124;5.422;2023-04-23T04:33:35;100686.13;;;6.94;100.00
71964;BME280;59834;52.124;5.422;2023-04-23T04:36:05;100687.88;;;6.94;100.00
71964;BME280;59834;52.124;5.422;2023-04-23T04:38:33;100690.41;;;6.95;100.00
71964;BME280;59834;52.124;5.422;2023-04-23T04:41:03;100692.84;;;6.98;100.00
71964;BME280;59834;52.124;5.422;2023-04-23T04:43:30;100696.22;;;7.00;100.00
71964;BME280;59834;52.124;5.422;2023-04-23T04:45:57;100686.72;;;6.99;100.00
71964;BME280;59834;52.124;5.422;2023-04-23T04:48:27;100685.78;;;7.00;100.00
71964;BME280;59834;52.124;5.422;2023-04-23T04:50:54;100693.59;;;7.00;100.00
71964;BME280;59834;52.124;5.422;2023-04-23T04:53:20;100691.88;;;7.01;100.00
71964;BME280;59834;52.124;5.422;2023-04-23T04:55:47;100701.41;;;7.00;100.00
71964;BME280;59834;52.124;5.422;2023-04-23T04:58:13;100700.25;;;7.06;100.00
71964;BME280;59834;52.124;5.422;2023-04-23T05:00:40;100696.59;;;7.10;100.00
71964;BME280;59834;52.124;5.422;2023-04-23T05:03:06;100699.72;;;7.17;100.00
71964;BME280;59834;52.124;5.422;2023-04-23T05:05:35;100696.72;;;7.24;100.00
71964;BME280;59834;52.124;5.422;2023-04-23T05:08:01;100690.34;;;7.30;100.00
71964;BME280;59834;52.124;5.422;2023-04-23T05:10:28;100684.91;;;7.35;100.00
71964;BME280;59834;52.124;5.422;2023-04-23T05:12:58;100687.44;;;7.36;100.00
71964;BME280;59834;52.124;5.422;2023-04-23T05:15:25;100690.81;;;7.38;100.00
71964;BME280;59834;52.124;5.422;2023-04-23T05:17:52;100689.88;;;7.39;100.00
71964;BME280;59834;52.124;5.422;2023-04-23T05:20:20;100694.00;;;7.43;100.00
71964;BME280;59834;52.124;5.422;2023-04-23T05:22:46;100691.69;;;7.54;100.00
71964;BME280;59834;52.124;5.422;2023-04-23T05:25:13;100689.63;;;8.55;100.00
71964;BME280;59834;52.124;5.422;2023-04-23T05:27:40;100687.06;;;9.71;100.00
71964;BME280;59834;52.124;5.422;2023-04-23T05:30:08;100683.53;;;10.67;100.00
71964;BME280;59834;52.124;5.422;2023-04-23T05:32:35;100689.22;;;11.25;95.79
71964;BME280;59834;52.124;5.422;2023-04-23T05:35:02;100687.81;;;11.70;91.96
71964;BME280;59834;52.124;5.422;2023-04-23T05:37:29;100680.44;;;11.88;89.80
71964;BME280;59834;52.124;5.422;2023-04-23T05:39:56;100682.13;;;12.13;87.55
71964;BME280;59834;52.124;5.422;2023-04-23T05:42:23;100677.75;;;12.38;86.19
71964;BME280;59834;52.124;5.422;2023-04-23T05:44:50;100671.06;;;12.80;84.10
71964;BME280;59834;52.124;5.422;2023-04-23T05:47:16;100690.84;;;13.08;82.32
71964;BME280;59834;52.124;5.422;2023-04-23T05:49:43;100690.72;;;13.21;80.68
71964;BME280;59834;52.124;5.422;2023-04-23T05:52:10;100683.13;;;13.29;79.80
71964;BME280;59834;52.124;5.422;2023-04-23T05:54:37;100684.22;;;13.49;78.71
71964;BME280;59834;52.124;5.422;2023-04-23T05:57:04;100682.66;;;13.69;77.96
71964;BME280;59834;52.124;5.422;2023-04-23T05:59:31;100683.59;;;13.79;77.49
71964;BME280;59834;52.124;5.422;2023-04-23T06:01:58;100676.53;;;13.80;76.72
71964;BME280;59834;52.124;5.422;2023-04-23T06:04:24;100677.03;;;13.62;77.73
71964;BME280;59834;52.124;5.422;2023-04-23T06:06:52;100670.88;;;13.84;77.60
71964;BME280;59834;52.124;5.422;2023-04-23T06:09:19;100675.72;;;14.23;76.08
71964;BME280;59834;52.124;5.422;2023-04-23T06:11:46;100660.31;;;14.50;74.99
71964;BME280;59834;52.124;5.422;2023-04-23T06:14:12;100666.88;;;14.45;74.67
71964;BME280;59834;52.124;5.422;2023-04-23T06:16:39;100661.47;;;14.78;74.18
71964;BME280;59834;52.124;5.422;2023-04-23T06:19:05;100657.06;;;14.79;73.53
71964;BME280;59834;52.124;5.422;2023-04-23T06:21:32;100657.81;;;14.70;73.68
71964;BME280;59834;52.124;5.422;2023-04-23T06:23:58;100656.34;;;14.45;74.94
71964;BME280;59834;52.124;5.422;2023-04-23T06:26:25;100652.78;;;14.34;75.86
71964;BME280;59834;52.124;5.422;2023-04-23T06:28:52;100648.34;;;14.46;74.86
71964;BME280;59834;52.124;5.422;2023-04-23T06:31:18;100648.91;;;14.50;75.91
71964;BME280;59834;52.124;5.422;2023-04-23T06:33:45;100646.75;;;14.55;75.11
71964;BME280;59834;52.124;5.422;2023-04-23T06:36:12;100658.25;;;14.54;75.32
71964;BME280;59834;52.124;5.422;2023-04-23T06:38:40;100648.75;;;14.30;75.25
71964;BME280;59834;52.124;5.422;2023-04-23T06:41:06;100642.56;;;14.20;76.42
71964;BME280;59834;52.124;5.422;2023-04-23T06:43:33;100639.53;;;14.36;76.08
71964;BME280;59834;52.124;5.422;2023-04-23T06:46:00;100644.16;;;14.44;75.57
71964;BME280;59834;52.124;5.422;2023-04-23T06:48:26;100633.53;;;14.34;75.88
71964;BME280;59834;52.124;5.422;2023-04-23T06:50:53;100641.34;;;13.81;76.72
71964;BME280;59834;52.124;5.422;2023-04-23T06:53:20;100635.72;;;12.84;82.21
71964;BME280;59834;52.124;5.422;2023-04-23T06:55:47;100639.19;;;12.38;84.29
71964;BME280;59834;52.124;5.422;2023-04-23T06:58:16;100641.34;;;12.09;85.90
71964;BME280;59834;52.124;5.422;2023-04-23T07:00:43;100633.19;;;12.01;86.79
71964;BME280;59834;52.124;5.422;2023-04-23T07:03:10;100636.97;;;11.97;88.13
71964;BME280;59834;52.124;5.422;2023-04-23T07:05:37;100632.06;;;11.79;88.90
71964;BME280;59834;52.124;5.422;2023-04-23T07:08:04;100629.19;;;11.84;89.09
71964;BME280;59834;52.124;5.422;2023-04-23T07:10:30;100629.22;;;11.83;89.47
71964;BME280;59834;52.124;5.422;2023-04-23T07:12:57;100626.22;;;11.89;89.62
71964;BME280;59834;52.124;5.422;2023-04-23T07:15:23;100631.56;;;11.87;89.66
71964;BME280;59834;52.124;5.422;2023-04-23T07:17:51;100626.22;;;11.89;90.94
71964;BME280;59834;52.124;5.422;2023-04-23T07:20:17;100630.84;;;11.85;89.91
71964;BME280;59834;52.124;5.422;2023-04-23T07:22:45;100624.53;;;11.88;90.34
71964;BME280;59834;52.124;5.422;2023-04-23T07:25:12;100628.72;;;11.90;90.67
71964;BME280;59834;52.124;5.422;2023-04-23T07:27:39;100624.84;;;12.07;91.50
71964;BME280;59834;52.124;5.422;2023-04-23T07:30:06;100632.78;;;12.18;90.73
71964;BME280;59834;52.124;5.422;2023-04-23T07:32:33;100623.91;;;12.32;90.63
71964;BME280;59834;52.124;5.422;2023-04-23T07:34:59;100627.88;;;12.38;90.47
71964;BME280;59834;52.124;5.422;2023-04-23T07:37:26;100631.97;;;12.53;90.19
71964;BME280;59834;52.124;5.422;2023-04-23T07:39:52;100621.13;;;12.58;88.95
71964;BME280;59834;52.124;5.422;2023-04-23T07:42:19;100622.44;;;12.63;88.79
71964;BME280;59834;52.124;5.422;2023-04-23T07:44:45;100619.34;;;12.69;89.12
71964;BME280;59834;52.124;5.422;2023-04-23T07:47:12;100614.38;;;12.78;88.78
71964;BME280;59834;52.124;5.422;2023-04-23T07:49:39;100606.22;;;12.81;88.24
71964;BME280;59834;52.124;5.422;2023-04-23T07:52:06;100609.81;;;12.91;88.05
71964;BME280;59834;52.124;5.422;2023-04-23T07:54:33;100620.22;;;13.04;87.32
71964;BME280;59834;52.124;5.422;2023-04-23T07:57:00;100617.97;;;12.99;85.92
71964;BME280;59834;52.124;5.422;2023-04-23T07:59:28;100611.28;;;13.06;86.44
71964;BME280;59834;52.124;5.422;2023-04-23T08:01:55;100609.63;;;13.16;85.63
71964;BME280;59834;52.124;5.422;2023-04-23T08:04:21;100605.91;;;13.19;86.09
71964;BME280;59834;52.124;5.422;2023-04-23T08:06:49;100603.53;;;13.16;85.21
71964;BME280;59834;52.124;5.422;2023-04-23T08:09:15;100602.19;;;13.10;84.64
71964;BME280;59834;52.124;5.422;2023-04-23T08:11:43;100603.88;;;13.23;84.94
71964;BME280;59834;52.124;5.422;2023-04-23T08:14:10;100603.06;;;13.22;84.23
71964;BME280;59834;52.124;5.422;2023-04-23T08:16:36;100598.63;;;13.34;85.33
71964;BME280;59834;52.124;5.422;2023-04-23T08:19:04;100598.66;;;13.45;84.04
71964;BME280;59834;52.124;5.422;2023-04-23T08:21:32;100596.22;;;13.53;84.09
71964;BME280;59834;52.124;5.422;2023-04-23T08:24:00;100588.09;;;13.56;83.02
71964;BME280;59834;52.124;5.422;2023-04-23T08:26:29;100591.06;;;13.63;81.57
71964;BME280;59834;52.124;5.422;2023-04-23T08:28:55;100589.00;;;13.78;83.13
71964;BME280;59834;52.124;5.422;2023-04-23T08:31:22;100593.75;;;13.84;82.26
71964;BME280;59834;52.124;5.422;2023-04-23T08:33:53;100587.56;;;13.85;81.53
71964;BME280;59834;52.124;5.422;2023-04-23T08:36:19;100592.22;;;13.81;81.60
71964;BME280;59834;52.124;5.422;2023-04-23T08:38:46;100579.28;;;13.89;80.67
71964;BME280;59834;52.124;5.422;2023-04-23T08:41:14;100586.53;;;13.97;81.04
71964;BME280;59834;52.124;5.422;2023-04-23T08:43:46;100584.81;;;14.07;81.56
71964;BME280;59834;52.124;5.422;2023-04-23T08:46:17;100582.78;;;14.11;80.48
71964;BME280;59834;52.124;5.422;2023-04-23T08:48:44;100588.88;;;14.11;79.71
71964;BME280;59834;52.124;5.422;2023-04-23T08:51:17;100582.34;;;14.06;79.76
71964;BME280;59834;52.124;5.422;2023-04-23T08:53:50;100578.34;;;14.11;79.46
71964;BME280;59834;52.124;5.422;2023-04-23T08:56:18;100581.63;;;14.25;79.07
71964;BME280;59834;52.124;5.422;2023-04-23T08:58:46;100586.22;;;14.23;79.81
71964;BME280;59834;52.124;5.422;2023-04-23T09:01:12;100583.41;;;14.35;79.04
71964;BME280;59834;52.124;5.422;2023-04-23T09:03:39;100586.78;;;14.47;79.05
71964;BME280;59834;52.124;5.422;2023-04-23T09:06:08;100579.03;;;14.67;78.83
71964;BME280;59834;52.124;5.422;2023-04-23T09:08:35;100580.84;;;14.66;76.87
71964;BME280;59834;52.124;5.422;2023-04-23T09:11:03;100577.19;;;14.57;76.78
71964;BME280;59834;52.124;5.422;2023-04-23T09:13:30;100579.31;;;14.64;76.70
71964;BME280;59834;52.124;5.422;2023-04-23T09:15:57;100583.03;;;14.92;76.07
71964;BME280;59834;52.124;5.422;2023-04-23T09:18:23;100578.66;;;15.02;74.40
71964;BME280;59834;52.124;5.422;2023-04-23T09:20:51;100579.38;;;15.04;74.66
71964;BME280;59834;52.124;5.422;2023-04-23T09:23:20;100576.06;;;15.12;74.35
71964;BME280;59834;52.124;5.422;2023-04-23T09:25:47;100577.81;;;15.01;74.10
71964;BME280;59834;52.124;5.422;2023-04-23T09:28:14;100569.91;;;15.01;74.52
71964;BME280;59834;52.124;5.422;2023-04-23T09:30:44;100566.63;;;15.09;73.32
71964;BME280;59834;52.124;5.422;2023-04-23T09:33:11;100563.13;;;15.08;72.79
71964;BME280;59834;52.124;5.422;2023-04-23T09:35:38;100559.97;;;15.15;73.19
71964;BME280;59834;52.124;5.422;2023-04-23T09:38:07;100554.22;;;15.40;71.38
71964;BME280;59834;52.124;5.422;2023-04-23T09:40:36;100556.66;;;15.63;71.74
71964;BME280;59834;52.124;5.422;2023-04-23T09:43:03;100558.41;;;15.52;70.21
71964;BME280;59834;52.124;5.422;2023-04-23T09:45:31;100547.59;;;15.55;71.25
71964;BME280;59834;52.124;5.422;2023-04-23T09:47:58;100557.22;;;15.76;70.95
71964;BME280;59834;52.124;5.422;2023-04-23T09:50:36;100548.75;;;15.82;69.46
71964;BME280;59834;52.124;5.422;2023-04-23T09:53:05;100548.91;;;16.10;69.03
71964;BME280;59834;52.124;5.422;2023-04-23T09:55:37;100547.63;;;16.33;66.26
71964;BME280;59834;52.124;5.422;2023-04-23T09:58:12;100551.47;;;16.48;65.99
71964;BME280;59834;52.124;5.422;2023-04-23T10:00:41;100545.88;;;16.71;64.86
71964;BME280;59834;52.124;5.422;2023-04-23T10:03:08;100548.94;;;16.76;63.78
71964;BME280;59834;52.124;5.422;2023-04-23T10:05:42;100552.31;;;16.39;64.23
71964;BME280;59834;52.124;5.422;2023-04-23T10:08:12;100555.13;;;16.28;65.49
71964;BME280;59834;52.124;5.422;2023-04-23T10:10:40;100546.22;;;16.29;63.21
71964;BME280;59834;52.124;5.422;2023-04-23T10:13:26;100541.66;;;16.31;63.54
71964;BME280;59834;52.124;5.422;2023-04-23T10:15:53;100547.97;;;16.67;63.43
71964;BME280;59834;52.124;5.422;2023-04-23T10:18:26;100547.53;;;16.82;63.62
71964;BME280;59834;52.124;5.422;2023-04-23T10:20:53;100548.59;;;16.89;63.80
71964;BME280;59834;52.124;5.422;2023-04-23T10:23:20;100540.72;;;17.07;63.56
71964;BME280;59834;52.124;5.422;2023-04-23T10:25:50;100543.56;;;16.95;61.44
71964;BME280;59834;52.124;5.422;2023-04-23T10:28:18;100542.41;;;16.80;59.88
71964;BME280;59834;52.124;5.422;2023-04-23T10:30:53;100534.16;;;16.83;61.92
71964;BME280;59834;52.124;5.422;2023-04-23T10:33:19;100538.28;;;16.95;60.15
71964;BME280;59834;52.124;5.422;2023-04-23T10:35:55;100539.63;;;16.62;60.66
71964;BME280;59834;52.124;5.422;2023-04-23T10:38:22;100536.41;;;16.78;61.42
71964;BME280;59834;52.124;5.422;2023-04-23T10:40:54;100530.00;;;16.71;61.16
71964;BME280;59834;52.124;5.422;2023-04-23T10:43:22;100517.28;;;16.57;62.19
71964;BME280;59834;52.124;5.422;2023-04-23T10:45:49;100518.34;;;16.64;62.04
71964;BME280;59834;52.124;5.422;2023-04-23T10:48:16;100513.13;;;16.44;60.57
71964;BME280;59834;52.124;5.422;2023-04-23T10:50:42;100515.88;;;16.53;60.55
71964;BME280;59834;52.124;5.422;2023-04-23T10:53:30;100508.88;;;16.81;59.74
71964;BME280;59834;52.124;5.422;2023-04-23T10:56:06;100498.75;;;17.04;60.41
71964;BME280;59834;52.124;5.422;2023-04-23T10:58:48;100498.03;;;17.29;59.17
71964;BME280;59834;52.124;5.422;2023-04-23T11:01:16;100492.91;;;17.46;57.36
71964;BME280;59834;52.124;5.422;2023-04-23T11:03:44;100498.94;;;17.56;57.42
71964;BME280;59834;52.124;5.422;2023-04-23T11:12:30;100477.25;;;17.52;57.29
71964;BME280;59834;52.124;5.422;2023-04-23T11:14:58;100475.72;;;17.50;57.15
71964;BME280;59834;52.124;5.422;2023-04-23T11:22:37;100482.34;;;17.00;56.79
71964;BME280;59834;52.124;5.422;2023-04-23T11:25:08;100464.47;;;17.30;55.78
71964;BME280;59834;52.124;5.422;2023-04-23T11:27:38;100459.19;;;17.48;54.89
71964;BME280;59834;52.124;5.422;2023-04-23T11:30:17;100455.03;;;17.45;54.42
71964;BME280;59834;52.124;5.422;2023-04-23T11:32:46;100451.53;;;17.62;53.85
71964;BME280;59834;52.124;5.422;2023-04-23T11:35:19;100455.72;;;17.65;53.84
71964;BME280;59834;52.124;5.422;2023-04-23T11:37:47;100447.06;;;17.63;53.69
71964;BME280;59834;52.124;5.422;2023-04-23T11:40:16;100449.38;;;17.58;54.43
71964;BME280;59834;52.124;5.422;2023-04-23T11:42:50;100449.59;;;17.64;54.13
71964;BME280;59834;52.124;5.422;2023-04-23T11:45:25;100435.06;;;17.86;52.65
71964;BME280;59834;52.124;5.422;2023-04-23T11:47:54;100426.25;;;17.78;53.18
71964;BME280;59834;52.124;5.422;2023-04-23T11:50:27;100428.06;;;17.77;53.81
71964;BME280;59834;52.124;5.422;2023-04-23T11:52:55;100417.41;;;17.95;54.66
71964;BME280;59834;52.124;5.422;2023-04-23T11:55:24;100419.94;;;17.79;54.44
71964;BME280;59834;52.124;5.422;2023-04-23T11:57:55;100424.25;;;17.80;53.95
71964;BME280;59834;52.124;5.422;2023-04-23T12:00:25;100411.94;;;17.53;54.33
71964;BME280;59834;52.124;5.422;2023-04-23T12:02:56;100410.34;;;17.60;54.52
71964;BME280;59834;52.124;5.422;2023-04-23T12:05:35;100397.41;;;17.75;54.38
71964;BME280;59834;52.124;5.422;2023-04-23T12:10:48;100401.50;;;17.51;54.58
71964;BME280;59834;52.124;5.422;2023-04-23T12:13:20;100385.72;;;17.77;54.34
71964;BME280;59834;52.124;5.422;2023-04-23T12:15:55;100392.47;;;17.80;53.41
71964;BME280;59834;52.124;5.422;2023-04-23T12:18:31;100389.00;;;17.79;53.70
71964;BME280;59834;52.124;5.422;2023-04-23T12:21:09;100388.44;;;17.94;54.49
71964;BME280;59834;52.124;5.422;2023-04-23T12:23:36;100381.22;;;18.04;52.75
71964;BME280;59834;52.124;5.422;2023-04-23T12:26:03;100383.72;;;18.05;53.67
71964;BME280;59834;52.124;5.422;2023-04-23T12:28:50;100382.78;;;17.88;54.08
71964;BME280;59834;52.124;5.422;2023-04-23T12:31:27;100365.69;;;18.09;51.70
71964;BME280;59834;52.124;5.422;2023-04-23T12:36:28;100366.16;;;18.38;52.88
71964;BME280;59834;52.124;5.422;2023-04-23T12:39:25;100365.50;;;18.36;53.69
71964;BME280;59834;52.124;5.422;2023-04-23T12:41:56;100361.75;;;18.13;52.53
71964;BME280;59834;52.124;5.422;2023-04-23T12:44:26;100355.94;;;18.09;52.63
71964;BME280;59834;52.124;5.422;2023-04-23T12:47:03;100352.88;;;17.96;52.77
71964;BME280;59834;52.124;5.422;2023-04-23T12:49:32;100345.31;;;18.44;52.85
71964;BME280;59834;52.124;5.422;2023-04-23T12:52:00;100346.38;;;18.67;52.10
71964;BME280;59834;52.124;5.422;2023-04-23T12:54:32;100346.00;;;18.54;51.82
71964;BME280;59834;52.124;5.422;2023-04-23T12:57:03;100334.34;;;18.30;51.78
71964;BME280;59834;52.124;5.422;2023-04-23T12:59:30;100330.44;;;18.08;51.97
71964;BME280;59834;52.124;5.422;2023-04-23T13:01:57;100336.13;;;17.87;52.71
71964;BME280;59834;52.124;5.422;2023-04-23T13:04:31;100333.03;;;17.74;54.04
71964;BME280;59834;52.124;5.422;2023-04-23T13:06:57;100338.34;;;17.74;54.20
71964;BME280;59834;52.124;5.422;2023-04-23T13:09:24;100329.63;;;17.82;54.88
71964;BME280;59834;52.124;5.422;2023-04-23T13:11:53;100313.28;;;17.86;54.99